This is the latest recevied weather packets stored in our database for station/object KD4UFD. If no packets are shown the sender has not sent any weather packets the latest 10 day(s).
| Time | Temp. | Humidity | Pressure | Rain* | Wind** | Luminosity | Snow |
|---|---|---|---|---|---|---|---|
| 1777495809 | 23.89° C | 79% | 1009.7 hPa | 0 mm | - | 423 W/m² | - |
| 1777495505 | 23.89° C | 79% | 1009.7 hPa | 0 mm | - | 338 W/m² | - |
| 1777495201 | 23.33° C | 80% | 1009.7 hPa | 0 mm | - | 427 W/m² | - |
| 1777494898 | 22.78° C | 81% | 1009.8 hPa | 0 mm | - | 483 W/m² | - |
| 1777494595 | 22.78° C | 82% | 1010.4 hPa | 0 mm | - | 494 W/m² | - |
| 1777494293 | 22.78° C | 83% | 1010.2 hPa | 0 mm | - | 304 W/m² | - |
| 1777493989 | 22.78° C | 84% | 1010.4 hPa | 0 mm | - | 324 W/m² | - |
| 1777493687 | 22.78° C | 86% | 1010.2 hPa | 0 mm | - | 383 W/m² | - |
| 1777493384 | 21.67° C | 87% | 1010.2 hPa | 0 mm | - | 672 W/m² | - |
| 1777493080 | 22.22° C | 86% | 1010.6 hPa | 3.05 mm | - | 204 W/m² | - |
| 1777492777 | 22.78° C | 83% | 1010.7 hPa | 3.05 mm | - | 251 W/m² | - |
| 1777492473 | 23.33° C | 82% | 1010.4 hPa | 0 mm | - | 167 W/m² | - |
| 1777492170 | 23.33° C | 82% | 1010.5 hPa | 0 mm | - | 221 W/m² | - |
| 1777491867 | 22.78° C | 82% | 1010.4 hPa | 0 mm | - | 263 W/m² | - |
| 1777491563 | 23.33° C | 80% | 1010.6 hPa | 0 mm | - | 246 W/m² | - |
| 1777491261 | 23.89° C | 80% | 1010.5 hPa | 0 mm | - | 364 W/m² | - |
| 1777490957 | 23.33° C | 82% | 1010.4 hPa | 0 mm | - | 379 W/m² | - |
| 1777490653 | 22.78° C | 82% | 1010.6 hPa | 0 mm | - | 189 W/m² | - |
| 1777490349 | 22.78° C | 82% | 1010.8 hPa | 0 mm | - | 207 W/m² | - |
| 1777490047 | 23.33° C | 81% | 1010.8 hPa | 0 mm | - | 172 W/m² | - |
| 1777489744 | 23.33° C | 81% | 1011.1 hPa | 0 mm | - | 203 W/m² | - |
| 1777489441 | 22.78° C | 82% | 1011.2 hPa | 0 mm | - | 435 W/m² | - |
| 1777489138 | 23.33° C | 80% | 1011.3 hPa | 0 mm | - | 465 W/m² | - |
| 1777488835 | 22.78° C | 81% | 1011 hPa | 0 mm | - | 631 W/m² | - |
| 1777488532 | 22.78° C | 82% | 1011.2 hPa | 0 mm | - | 365 W/m² | - |
* Rain latest hour (hover to see other rain measurements)
** Current wind speed in m/s (hover to see current wind gust speed)